CZ-0137 weather

Radovesice Airfield
Ústí nad Labem Region, Czechia

Public forecast

Using degrees Celsius for public forecast. Weather courtesy of forecast.io.

METAR (pilot weather report)

Report is more than 6 hours old.

Closest report is Vodochody Airport, 16.6 nm (30.8 km) SE. Retrieved 2019/01/18 14:00 UTC (9 hours ago):

LKVO 181400Z 33006KT 280V070 9999 SCT032 M00/M07 Q1018

TAF (pilot weather forecast)

Forecast is more than 6 hours old.

Closest forecast is Václav Havel Airport Prague, 19.7 nm (36.5 km) SSE. Retrieved 2019/01/18 12:21 UTC (10 hours ago):

TAF LKPR 181100Z 1812/1918 31012KT 9999 SCT030 BKN045 BECMG 1815/1818 VRB02KT CAVOK BECMG 1910/1912 08005KT